METAR Data
IDs: Format: Raw Decoded Include TAF

Data at: 0644 UTC 01 Aug 2021

KSGS 010635Z AUTO 36005KT 7SM CLR 21/10 A3006 RMK AO2 T02070104